ADDS METAR Data INFO
IDs: Format: Raw Decoded Include TAF

Data at: 0608 UTC 25 Jun 2018

KINJ 250555Z AUTO 15012KT 10SM CLR 28/23 A2987 RMK AO2 T02800225 10356 20280 403730262
KINJ 250535Z AUTO 16012G16KT 10SM CLR 28/23 A2988 RMK AO2 T02820225
KINJ 250515Z AUTO 15013KT 10SM CLR 29/23 A2988 RMK AO2 T02870225
KINJ 250455Z AUTO 15016G19KT 10SM CLR 29/23 A2989 RMK AO2 T02910225
KINJ 250435Z AUTO 15012KT 10SM CLR 29/23 A2989 RMK AO2 T02930226
KINJ 250415Z AUTO 16017G21KT 10SM CLR 30/23 A2988 RMK AO2 T02960225
KINJ 250355Z AUTO 15012KT 10SM CLR 30/22 A2988 RMK AO2 T03000220
KINJ 250335Z AUTO 15014KT 10SM CLR 30/21 A2987 RMK AO2 T03020213
KINJ 250320Z AUTO 15013KT 10SM CLR 31/21 A2987 RMK AO2 T03050210
KINJ 250255Z AUTO 15012KT 10SM CLR 31/21 A2986 RMK AO2 T03080211
KINJ 250235Z AUTO 15013KT 10SM CLR 32/21 A2986 RMK AO2 T03150212
KINJ 250215Z AUTO 14014G17KT 10SM SCT055 32/21 A2986 RMK AO2 T03170210
KINJ 250155Z AUTO 13013G16KT 10SM SCT055 32/21 A2986 RMK AO2 T03230209
KINJ 250135Z AUTO 15012G17KT 10SM SCT055 33/21 A2986 RMK AO2 T03300207
KINJ 250115Z AUTO 13012G15KT 10SM CLR 34/21 A2985 RMK AO2 T03360208
KINJ 250055Z AUTO 16016G20KT 10SM CLR 34/20 A2984 RMK AO2 T03430202
KINJ 250035Z AUTO 15017G23KT 10SM CLR 35/21 A2983 RMK AO2 T03470205
KINJ 250015Z AUTO 15019G27KT 10SM CLR 35/21 A2981 RMK AO2 T03500205
KINJ 242355Z AUTO 15020G26KT 10SM CLR 36/21 A2981 RMK AO2 T03560206 10373 20343
KINJ 242335Z AUTO 16018G25KT 10SM CLR 36/20 A2979 RMK AO2 T03630201
KINJ 242315Z AUTO 16024G31KT 10SM CLR 37/20 A2979 RMK AO2 T03650201
KINJ 242255Z AUTO 16021G30KT 10SM CLR 37/19 A2979 RMK AO2 T03670192
KINJ 242235Z AUTO 16022G28KT 10SM CLR 37/19 A2980 RMK AO2 T03670189
KINJ 242215Z AUTO 17020G28KT 10SM CLR 37/20 A2980 RMK AO2 T03690197
KINJ 242155Z AUTO 16021G28KT 10SM CLR 37/19 A2981 RMK AO2 T03680194
KINJ 242135Z AUTO 15019G27KT 10SM CLR 37/20 A2981 RMK AO2 T03690199
KINJ 242115Z AUTO 16022G29KT 10SM CLR 37/20 A2981 RMK AO2 T03720200
KINJ 242055Z AUTO 16021G29KT 10SM CLR 37/20 A2981 RMK AO2 T03680202
KINJ 242035Z AUTO 17015G25KT 10SM CLR 37/21 A2981 RMK AO2 T03650206
KINJ 242015Z AUTO 16021G26KT 10SM SCT060 37/21 A2981 RMK AO2 T03670207
KINJ 241955Z AUTO 16019G26KT 10SM CLR 37/21 A2983 RMK AO2 T03660207
KINJ 241935Z AUTO 15018G28KT 10SM CLR 36/21 A2983 RMK AO2 T03600208
KINJ 241915Z AUTO 16019G28KT 10SM CLR 36/21 A2984 RMK AO2 T03600207
KINJ 241855Z AUTO 16018G23KT 10SM CLR 36/21 A2985 RMK AO2 T03580207
KINJ 241835Z AUTO 18019G27KT 10SM CLR 35/21 A2985 RMK AO2 T03500207
KINJ 241815Z AUTO 17016G22KT 10SM CLR 35/21 A2986 RMK AO2 T03480207
KINJ 241755Z AUTO 16011G21KT 10SM SCT046 35/21 A2987 RMK AO2 T03450211 10345 20265
KINJ 241735Z AUTO 18014G20KT 10SM SCT044 34/21 A2987 RMK AO2 T03370213
KINJ 241715Z AUTO 17015G20KT 10SM BKN042 33/21 A2988 RMK AO2 T03290213
KINJ 241655Z AUTO 15017G21KT 10SM SCT036 SCT044 33/22 A2988 RMK AO2 T03250218
KINJ 241635Z AUTO 16016G20KT 10SM SCT034 31/22 A2988 RMK AO2 T03110218
KINJ 241615Z AUTO 15016G23KT 10SM CLR 31/22 A2988 RMK AO2 T03080220
KINJ 241555Z AUTO 16015KT 10SM CLR 29/23 A2988 RMK AO2 LTG DSNT NW T02910225
KINJ 241535Z AUTO 16014G21KT 10SM CLR 29/22 A2988 RMK AO2 T02870221
KINJ 241515Z AUTO 18017G21KT 10SM CLR 28/23 A2987 RMK AO2 T02810226
KINJ 241455Z AUTO 18015G22KT 10SM CLR 28/23 A2987 RMK AO2 T02800225
KINJ 241435Z AUTO 17017G21KT 10SM CLR 28/23 A2987 RMK AO2 T02800225
KINJ 241415Z AUTO 17014G21KT 10SM SCT026 28/23 A2986 RMK AO2 T02810226
KINJ 241355Z AUTO 18020G26KT 10SM SCT026 29/23 A2986 RMK AO2 T02880226
KINJ 241335Z AUTO 17018G27KT 10SM CLR 28/23 A2985 RMK AO2 T02820225
KINJ 241315Z AUTO 18016G21KT 10SM SCT023 SCT034 28/23 A2985 RMK AO2 T02830230
KINJ 241255Z AUTO 18014G26KT 10SM SCT023 SCT034 28/23 A2984 RMK AO2 T02750228
KINJ 241235Z AUTO 18021G29KT 10SM SCT033 27/23 A2982 RMK AO2 T02680230
KINJ 241215Z AUTO 17021G25KT 10SM BKN033 27/23 A2980 RMK AO2 T02650230
KINJ 241155Z AUTO 18021G25KT 10SM SCT023 SCT029 BKN035 27/23 A2979 RMK AO2 T02650230 10285 20262
KINJ 241135Z AUTO 18017G26KT 10SM BKN023 BKN029 26/23 A2978 RMK AO2 T02630230
KINJ 241115Z AUTO 19021G28KT 10SM SCT023 SCT027 26/23 A2977 RMK AO2 T02620229
KINJ 241055Z AUTO 18023G33KT 10SM CLR 27/23 A2976 RMK AO2 T02650228
KINJ 241035Z AUTO 18023G32KT 10SM CLR 27/23 A2974 RMK AO2 T02650226
KINJ 241015Z AUTO 17021G28KT 10SM CLR 27/23 A2974 RMK AO2 T02670225
KINJ 240955Z AUTO 16022G29KT 10SM CLR 27/23 A2974 RMK AO2 T02700225
KINJ 240935Z AUTO 17023G30KT 10SM CLR 27/23 A2975 RMK AO2 T02700230
KINJ 240915Z AUTO 18022G28KT 10SM CLR 27/23 A2976 RMK AO2 T02700230
KINJ 240855Z AUTO 18020G29KT 10SM CLR 27/23 A2977 RMK AO2 T02710230
KINJ 240835Z AUTO 15019G24KT 10SM CLR 27/23 A2974 RMK AO2 T02720230
KINJ 240815Z AUTO 15018G21KT 10SM CLR 27/23 A2976 RMK AO2 T02730230
KINJ 240755Z AUTO 15017G23KT 10SM CLR 28/23 A2979 RMK AO2 T02760230
KINJ 240735Z AUTO 16017G22KT 10SM CLR 28/23 A2981 RMK AO2 T02780230
KINJ 240715Z AUTO 16016KT 10SM CLR 28/23 A2983 RMK AO2 LTG DSNT N AND W T02800230
KINJ 240655Z AUTO 17014G21KT 10SM VCTS CLR 28/23 A2984 RMK AO2 LTG DSNT W AND NW T02810230
KINJ 240635Z AUTO 17016G20KT 10SM CLR 28/23 A2985 RMK AO2 LTG DSNT W AND NW T02820230
KINJ 240615Z AUTO 18010G18KT 10SM CLR 28/23 A2986 RMK AO2 LTG DSNT SW T02820227
KINJ 240555Z AUTO 17013KT 10SM CLR 29/23 A2985 RMK AO2 LTG DSNT NW T02850225 10356 20285 403690260
KINJ 240535Z AUTO 17015G23KT 10SM VCTS CLR 29/23 A2984 RMK AO2 LTG DSNT SW AND NW T02880225
KINJ 240515Z AUTO 15015KT 10SM CLR 29/22 A2983 RMK AO2 T02900223
KINJ 240455Z AUTO 16013G19KT 10SM CLR 29/22 A2983 RMK AO2 T02930222
KINJ 240435Z AUTO 15010KT 10SM CLR 30/22 A2982 RMK AO2 T02950222
KINJ 240415Z AUTO 15014KT 10SM CLR 30/22 A2979 RMK AO2 T02970221
KINJ 240355Z AUTO 15012KT 10SM CLR 30/22 A2979 RMK AO2 T03000222
KINJ 240335Z AUTO 14013KT 10SM CLR 30/22 A2977 RMK AO2 T03030221
KINJ 240315Z AUTO 14016G20KT 10SM CLR 31/22 A2977 RMK AO2 T03070221
KINJ 240255Z AUTO 14015G21KT 10SM CLR 31/22 A2976 RMK AO2 T03110222
KINJ 240235Z AUTO 14014G19KT 10SM CLR 31/22 A2975 RMK AO2 T03140223
KINJ 240215Z AUTO 14015G20KT 10SM CLR 32/22 A2974 RMK AO2 T03170222
KINJ 240155Z AUTO 14014KT 10SM CLR 32/22 A2974 RMK AO2 T03220217
KINJ 240135Z AUTO 14013KT 10SM CLR 33/21 A2974 RMK AO2 T03280212
KINJ 240115Z AUTO 15016G20KT 10SM CLR 34/21 A2973 RMK AO2 T03360213
KINJ 240055Z AUTO 15014G20KT 10SM SCT060 34/21 A2974 RMK AO2 T03440211
KINJ 240035Z AUTO 15015G21KT 10SM SCT060 35/20 A2973 RMK AO2 T03470204
KINJ 240015Z AUTO 14017G22KT 10SM SCT060 35/21 A2973 RMK AO2 T03510205
KINJ 232355Z AUTO 15016G23KT 10SM SCT060 36/21 A2973 RMK AO2 T03550205 10369 20338
KINJ 232335Z AUTO 14016KT 10SM SCT060 36/21 A2973 RMK AO2 T03570205
KINJ 232315Z AUTO 16015G22KT 10SM SCT060 36/21 A2974 RMK AO2 T03610205
KINJ 232255Z AUTO 14015G23KT 10SM SCT060 36/21 A2974 RMK AO2 T03600205
KINJ 232235Z AUTO 14014G21KT 10SM CLR 36/20 A2974 RMK AO2 T03630203
KINJ 232215Z AUTO 15016G23KT 10SM SCT060 36/20 A2974 RMK AO2 T03640203
KINJ 232155Z AUTO 15019G23KT 10SM CLR 36/20 A2975 RMK AO2 T03630200
KINJ 232135Z AUTO 16020G25KT 10SM CLR 37/20 A2975 RMK AO2 T03670199
KINJ 232115Z AUTO 15017G22KT 10SM CLR 37/20 A2975 RMK AO2 T03650198
KINJ 232055Z AUTO 15014G23KT 10SM CLR 37/19 A2976 RMK AO2 T03690194
KINJ 232035Z AUTO 16016G27KT 10SM CLR 36/19 A2977 RMK AO2 T03630191
KINJ 232015Z AUTO 14015G20KT 10SM CLR 37/19 A2978 RMK AO2 T03660192
KINJ 231955Z AUTO 16017G22KT 7SM CLR 36/19 A2979 RMK AO2 T03610191
KINJ 231935Z AUTO 17013KT 10SM CLR 36/20 A2979 RMK AO2 T03610199
KINJ 231915Z AUTO 15015G24KT 10SM CLR 36/20 A2981 RMK AO2 T03550200
KINJ 231855Z AUTO 15015G23KT 10SM CLR 35/20 A2982 RMK AO2 T03460204
KINJ 231835Z AUTO 14016G20KT 10SM CLR 35/21 A2983 RMK AO2 T03450206
KINJ 231815Z AUTO 13009G20KT 100V170 10SM CLR 34/21 A2984 RMK AO2 T03410208